sensor_id;sensor_type;location;lat;lon;timestamp;pressure;altitude;pressure_sealevel;temperature;humidity
28167;BME280;15455;53.376;-6.262;2023-05-03T00:01:16;102243.13;;;9.26;100.00
28167;BME280;15455;53.376;-6.262;2023-05-03T00:04:02;102243.06;;;9.24;100.00
28167;BME280;15455;53.376;-6.262;2023-05-03T00:06:48;102251.78;;;9.25;100.00
28167;BME280;15455;53.376;-6.262;2023-05-03T00:09:34;102241.38;;;9.25;100.00
28167;BME280;15455;53.376;-6.262;2023-05-03T00:12:20;102240.44;;;9.23;100.00
28167;BME280;15455;53.376;-6.262;2023-05-03T00:15:06;102242.09;;;9.19;100.00
28167;BME280;15455;53.376;-6.262;2023-05-03T00:17:52;102238.53;;;9.17;100.00
28167;BME280;15455;53.376;-6.262;2023-05-03T00:20:38;102245.34;;;9.12;100.00
28167;BME280;15455;53.376;-6.262;2023-05-03T00:23:23;102247.84;;;9.07;100.00
28167;BME280;15455;53.376;-6.262;2023-05-03T00:26:09;102235.56;;;9.03;100.00
28167;BME280;15455;53.376;-6.262;2023-05-03T00:28:56;102242.44;;;9.01;100.00
28167;BME280;15455;53.376;-6.262;2023-05-03T00:31:44;102242.47;;;9.02;100.00
28167;BME280;15455;53.376;-6.262;2023-05-03T00:34:30;102239.88;;;9.02;100.00
28167;BME280;15455;53.376;-6.262;2023-05-03T00:37:15;102242.44;;;9.01;100.00
28167;BME280;15455;53.376;-6.262;2023-05-03T00:40:00;102244.16;;;9.00;100.00
28167;BME280;15455;53.376;-6.262;2023-05-03T00:42:46;102238.97;;;9.00;100.00
28167;BME280;15455;53.376;-6.262;2023-05-03T00:45:35;102233.66;;;8.97;100.00
28167;BME280;15455;53.376;-6.262;2023-05-03T00:48:20;102231.94;;;8.98;100.00
28167;BME280;15455;53.376;-6.262;2023-05-03T00:51:07;102235.50;;;9.00;100.00
28167;BME280;15455;53.376;-6.262;2023-05-03T00:53:53;102228.44;;;8.96;100.00
28167;BME280;15455;53.376;-6.262;2023-05-03T00:56:39;102229.19;;;8.92;100.00
28167;BME280;15455;53.376;-6.262;2023-05-03T00:59:35;102226.56;;;8.92;100.00
28167;BME280;15455;53.376;-6.262;2023-05-03T01:02:22;102224.00;;;8.93;100.00
28167;BME280;15455;53.376;-6.262;2023-05-03T01:05:09;102224.97;;;8.97;100.00
28167;BME280;15455;53.376;-6.262;2023-05-03T01:08:16;102217.16;;;8.97;100.00
28167;BME280;15455;53.376;-6.262;2023-05-03T01:11:11;102213.66;;;8.96;100.00
28167;BME280;15455;53.376;-6.262;2023-05-03T01:17:38;102207.59;;;8.96;100.00
28167;BME280;15455;53.376;-6.262;2023-05-03T01:20:26;102211.06;;;8.96;100.00
28167;BME280;15455;53.376;-6.262;2023-05-03T01:23:28;102208.47;;;8.96;100.00
28167;BME280;15455;53.376;-6.262;2023-05-03T01:26:23;102206.69;;;8.95;100.00
28167;BME280;15455;53.376;-6.262;2023-05-03T01:29:08;102204.16;;;8.98;100.00
28167;BME280;15455;53.376;-6.262;2023-05-03T01:31:59;102198.22;;;9.02;100.00
28167;BME280;15455;53.376;-6.262;2023-05-03T01:35:03;102203.66;;;9.10;100.00
28167;BME280;15455;53.376;-6.262;2023-05-03T01:37:50;102199.34;;;9.12;100.00
28167;BME280;15455;53.376;-6.262;2023-05-03T01:40:47;102190.63;;;9.10;100.00
28167;BME280;15455;53.376;-6.262;2023-05-03T01:43:33;102194.94;;;9.10;100.00
28167;BME280;15455;53.376;-6.262;2023-05-03T01:46:19;102186.25;;;9.09;100.00
28167;BME280;15455;53.376;-6.262;2023-05-03T01:49:05;102191.56;;;9.14;100.00
28167;BME280;15455;53.376;-6.262;2023-05-03T01:51:50;102192.56;;;9.17;100.00
28167;BME280;15455;53.376;-6.262;2023-05-03T01:54:36;102177.78;;;9.18;100.00
28167;BME280;15455;53.376;-6.262;2023-05-03T01:57:21;102189.94;;;9.17;100.00
28167;BME280;15455;53.376;-6.262;2023-05-03T02:00:07;102188.22;;;9.18;100.00
28167;BME280;15455;53.376;-6.262;2023-05-03T02:02:56;102183.03;;;9.19;100.00
28167;BME280;15455;53.376;-6.262;2023-05-03T02:05:42;102184.91;;;9.24;100.00
28167;BME280;15455;53.376;-6.262;2023-05-03T02:08:28;102177.94;;;9.24;100.00
28167;BME280;15455;53.376;-6.262;2023-05-03T02:11:13;102168.44;;;9.25;100.00
28167;BME280;15455;53.376;-6.262;2023-05-03T02:13:59;102168.47;;;9.26;100.00
28167;BME280;15455;53.376;-6.262;2023-05-03T02:16:44;102174.59;;;9.28;100.00
28167;BME280;15455;53.376;-6.262;2023-05-03T02:19:30;102172.00;;;9.30;100.00
28167;BME280;15455;53.376;-6.262;2023-05-03T02:22:18;102172.00;;;9.30;100.00
28167;BME280;15455;53.376;-6.262;2023-05-03T02:25:05;102178.13;;;9.30;100.00
28167;BME280;15455;53.376;-6.262;2023-05-03T02:27:51;102168.56;;;9.31;100.00
28167;BME280;15455;53.376;-6.262;2023-05-03T02:30:37;102170.31;;;9.30;100.00
28167;BME280;15455;53.376;-6.262;2023-05-03T02:33:22;102169.44;;;9.31;100.00
28167;BME280;15455;53.376;-6.262;2023-05-03T02:36:08;102157.28;;;9.30;100.00
28167;BME280;15455;53.376;-6.262;2023-05-03T02:38:54;102163.28;;;9.28;100.00
28167;BME280;15455;53.376;-6.262;2023-05-03T02:41:39;102171.06;;;9.26;100.00
28167;BME280;15455;53.376;-6.262;2023-05-03T02:44:25;102162.38;;;9.27;100.00
28167;BME280;15455;53.376;-6.262;2023-05-03T02:47:10;102167.66;;;9.29;100.00
28167;BME280;15455;53.376;-6.262;2023-05-03T02:49:59;102164.13;;;9.27;100.00
28167;BME280;15455;53.376;-6.262;2023-05-03T02:52:48;102159.75;;;9.26;100.00
28167;BME280;15455;53.376;-6.262;2023-05-03T02:55:33;102158.81;;;9.22;100.00
28167;BME280;15455;53.376;-6.262;2023-05-03T02:58:20;102164.88;;;9.23;100.00
28167;BME280;15455;53.376;-6.262;2023-05-03T03:01:05;102155.38;;;9.23;100.00
28167;BME280;15455;53.376;-6.262;2023-05-03T03:03:52;102159.72;;;9.24;100.00
28167;BME280;15455;53.376;-6.262;2023-05-03T03:06:37;102155.31;;;9.21;100.00
28167;BME280;15455;53.376;-6.262;2023-05-03T03:09:23;102163.00;;;9.17;100.00
28167;BME280;15455;53.376;-6.262;2023-05-03T03:12:08;102151.59;;;9.12;100.00
28167;BME280;15455;53.376;-6.262;2023-05-03T03:14:54;102164.50;;;9.07;100.00
28167;BME280;15455;53.376;-6.262;2023-05-03T03:17:41;102153.91;;;9.01;100.00
28167;BME280;15455;53.376;-6.262;2023-05-03T03:20:28;102153.78;;;8.96;100.00
28167;BME280;15455;53.376;-6.262;2023-05-03T03:23:14;102158.94;;;8.95;100.00
28167;BME280;15455;53.376;-6.262;2023-05-03T03:26:00;102156.34;;;8.95;100.00
28167;BME280;15455;53.376;-6.262;2023-05-03T03:28:46;102158.94;;;8.95;100.00
28167;BME280;15455;53.376;-6.262;2023-05-03T03:31:31;102161.56;;;8.95;100.00
28167;BME280;15455;53.376;-6.262;2023-05-03T03:34:17;102152.69;;;8.88;100.00
28167;BME280;15455;53.376;-6.262;2023-05-03T03:37:03;102157.81;;;8.85;100.00
28167;BME280;15455;53.376;-6.262;2023-05-03T03:39:50;102157.81;;;8.85;100.00
28167;BME280;15455;53.376;-6.262;2023-05-03T03:42:36;102158.59;;;8.82;100.00
28167;BME280;15455;53.376;-6.262;2023-05-03T03:45:22;102150.94;;;8.87;100.00
28167;BME280;15455;53.376;-6.262;2023-05-03T03:48:08;102159.75;;;8.92;100.00
28167;BME280;15455;53.376;-6.262;2023-05-03T03:50:53;102152.00;;;8.95;100.00
28167;BME280;15455;53.376;-6.262;2023-05-03T03:53:43;102153.88;;;8.99;100.00
28167;BME280;15455;53.376;-6.262;2023-05-03T03:56:29;102159.22;;;9.06;100.00
28167;BME280;15455;53.376;-6.262;2023-05-03T03:59:15;102155.03;;;9.11;100.00
28167;BME280;15455;53.376;-6.262;2023-05-03T04:02:02;102148.19;;;9.14;100.00
28167;BME280;15455;53.376;-6.262;2023-05-03T04:04:47;102157.00;;;9.19;100.00
28167;BME280;15455;53.376;-6.262;2023-05-03T04:07:35;102145.66;;;9.17;100.00
28167;BME280;15455;53.376;-6.262;2023-05-03T04:10:21;102154.44;;;9.21;100.00
28167;BME280;15455;53.376;-6.262;2023-05-03T04:13:06;102148.38;;;9.22;100.00
28167;BME280;15455;53.376;-6.262;2023-05-03T04:15:54;102144.00;;;9.21;100.00
28167;BME280;15455;53.376;-6.262;2023-05-03T04:18:41;102146.69;;;9.24;100.00
28167;BME280;15455;53.376;-6.262;2023-05-03T04:21:27;102141.47;;;9.24;100.00
28167;BME280;15455;53.376;-6.262;2023-05-03T04:24:16;102141.56;;;9.27;100.00
28167;BME280;15455;53.376;-6.262;2023-05-03T04:27:02;102137.28;;;9.29;100.00
28167;BME280;15455;53.376;-6.262;2023-05-03T04:29:51;102142.50;;;9.29;100.00
28167;BME280;15455;53.376;-6.262;2023-05-03T04:32:36;102147.66;;;9.28;100.00
28167;BME280;15455;53.376;-6.262;2023-05-03T04:35:28;102146.72;;;9.26;100.00
28167;BME280;15455;53.376;-6.262;2023-05-03T04:38:16;102150.19;;;9.25;100.00
28167;BME280;15455;53.376;-6.262;2023-05-03T04:41:03;102153.63;;;9.24;100.00
28167;BME280;15455;53.376;-6.262;2023-05-03T04:43:49;102157.88;;;9.20;100.00
28167;BME280;15455;53.376;-6.262;2023-05-03T04:46:35;102151.81;;;9.21;100.00
28167;BME280;15455;53.376;-6.262;2023-05-03T04:49:21;102150.00;;;9.18;100.00
28167;BME280;15455;53.376;-6.262;2023-05-03T04:52:06;102151.66;;;9.15;100.00
28167;BME280;15455;53.376;-6.262;2023-05-03T04:54:52;102158.53;;;9.13;100.00
28167;BME280;15455;53.376;-6.262;2023-05-03T04:57:40;102156.72;;;9.09;100.00
28167;BME280;15455;53.376;-6.262;2023-05-03T05:00:27;102157.53;;;9.06;100.00
28167;BME280;15455;53.376;-6.262;2023-05-03T05:03:18;102159.06;;;8.99;100.00
28167;BME280;15455;53.376;-6.262;2023-05-03T05:06:04;102158.03;;;8.93;100.00
28167;BME280;15455;53.376;-6.262;2023-05-03T05:08:51;102155.28;;;8.88;100.00
28167;BME280;15455;53.376;-6.262;2023-05-03T05:11:37;102155.22;;;8.85;100.00
28167;BME280;15455;53.376;-6.262;2023-05-03T05:14:22;102158.59;;;8.82;100.00
28167;BME280;15455;53.376;-6.262;2023-05-03T05:17:08;102157.72;;;8.82;100.00
28167;BME280;15455;53.376;-6.262;2023-05-03T05:19:54;102153.41;;;8.82;100.00
28167;BME280;15455;53.376;-6.262;2023-05-03T05:22:40;102153.53;;;8.87;100.00
28167;BME280;15455;53.376;-6.262;2023-05-03T05:25:25;102158.88;;;8.92;100.00
28167;BME280;15455;53.376;-6.262;2023-05-03T05:28:12;102162.44;;;8.95;100.00
28167;BME280;15455;53.376;-6.262;2023-05-03T05:30:58;102167.81;;;9.01;100.00
28167;BME280;15455;53.376;-6.262;2023-05-03T05:33:43;102170.69;;;9.12;100.00
28167;BME280;15455;53.376;-6.262;2023-05-03T05:36:30;102179.69;;;9.24;100.00
28167;BME280;15455;53.376;-6.262;2023-05-03T05:39:16;102174.69;;;9.33;100.00
28167;BME280;15455;53.376;-6.262;2023-05-03T05:42:02;102175.88;;;9.46;100.00
28167;BME280;15455;53.376;-6.262;2023-05-03T05:44:49;102183.13;;;9.57;100.00
28167;BME280;15455;53.376;-6.262;2023-05-03T05:47:37;102188.66;;;9.70;100.00
28167;BME280;15455;53.376;-6.262;2023-05-03T05:50:23;102192.44;;;9.83;100.00
28167;BME280;15455;53.376;-6.262;2023-05-03T05:53:14;102191.88;;;9.96;100.00
28167;BME280;15455;53.376;-6.262;2023-05-03T05:56:07;102196.50;;;10.08;100.00
28167;BME280;15455;53.376;-6.262;2023-05-03T05:58:53;102200.28;;;10.21;100.00
28167;BME280;15455;53.376;-6.262;2023-05-03T06:01:40;102203.09;;;10.30;100.00
28167;BME280;15455;53.376;-6.262;2023-05-03T06:04:29;102205.94;;;10.39;100.00
28167;BME280;15455;53.376;-6.262;2023-05-03T06:07:15;102200.84;;;10.46;100.00
28167;BME280;15455;53.376;-6.262;2023-05-03T06:10:01;102194.88;;;10.51;100.00
28167;BME280;15455;53.376;-6.262;2023-05-03T06:12:47;102195.88;;;10.58;100.00
28167;BME280;15455;53.376;-6.262;2023-05-03T06:15:38;102200.31;;;10.62;100.00
28167;BME280;15455;53.376;-6.262;2023-05-03T06:18:24;102196.94;;;10.66;100.00
28167;BME280;15455;53.376;-6.262;2023-05-03T06:21:10;102190.97;;;10.72;100.00
28167;BME280;15455;53.376;-6.262;2023-05-03T06:23:56;102198.06;;;10.79;100.00
28167;BME280;15455;53.376;-6.262;2023-05-03T06:26:43;102179.88;;;10.84;100.00
28167;BME280;15455;53.376;-6.262;2023-05-03T06:29:29;102182.63;;;10.91;100.00
28167;BME280;15455;53.376;-6.262;2023-05-03T06:32:15;102181.00;;;10.97;100.00
28167;BME280;15455;53.376;-6.262;2023-05-03T06:35:00;102183.72;;;11.03;100.00
28167;BME280;15455;53.376;-6.262;2023-05-03T06:37:47;102175.13;;;11.10;100.00
28167;BME280;15455;53.376;-6.262;2023-05-03T06:40:33;102170.91;;;11.17;100.00
28167;BME280;15455;53.376;-6.262;2023-05-03T06:43:22;102171.00;;;11.23;100.00
28167;BME280;15455;53.376;-6.262;2023-05-03T06:46:11;102165.03;;;11.30;100.00
28167;BME280;15455;53.376;-6.262;2023-05-03T06:48:57;102156.44;;;11.36;100.00
28167;BME280;15455;53.376;-6.262;2023-05-03T06:51:43;102153.91;;;11.42;100.00
28167;BME280;15455;53.376;-6.262;2023-05-03T06:54:28;102163.63;;;11.51;100.00
28167;BME280;15455;53.376;-6.262;2023-05-03T06:57:13;102151.53;;;11.56;100.00
28167;BME280;15455;53.376;-6.262;2023-05-03T06:59:59;102157.75;;;11.64;100.00
28167;BME280;15455;53.376;-6.262;2023-05-03T07:02:44;102150.94;;;11.74;100.00
28167;BME280;15455;53.376;-6.262;2023-05-03T07:05:30;102143.22;;;11.81;100.00
28167;BME280;15455;53.376;-6.262;2023-05-03T07:08:15;102140.69;;;11.89;100.00
28167;BME280;15455;53.376;-6.262;2023-05-03T07:11:01;102145.19;;;11.96;100.00
28167;BME280;15455;53.376;-6.262;2023-05-03T07:13:52;102144.44;;;12.04;100.00
28167;BME280;15455;53.376;-6.262;2023-05-03T07:16:38;102148.88;;;12.11;100.00
28167;BME280;15455;53.376;-6.262;2023-05-03T07:19:23;102135.81;;;12.12;100.00
28167;BME280;15455;53.376;-6.262;2023-05-03T07:22:08;102135.00;;;12.16;100.00
28167;BME280;15455;53.376;-6.262;2023-05-03T07:24:54;102139.41;;;12.19;100.00
28167;BME280;15455;53.376;-6.262;2023-05-03T07:27:42;102125.56;;;12.26;100.00
28167;BME280;15455;53.376;-6.262;2023-05-03T07:30:27;102125.56;;;12.28;100.00
28167;BME280;15455;53.376;-6.262;2023-05-03T07:33:13;102119.53;;;12.33;100.00
28167;BME280;15455;53.376;-6.262;2023-05-03T07:35:59;102124.81;;;12.38;100.00
28167;BME280;15455;53.376;-6.262;2023-05-03T07:38:44;102111.75;;;12.41;100.00
28167;BME280;15455;53.376;-6.262;2023-05-03T07:41:30;102117.06;;;12.47;100.00
28167;BME280;15455;53.376;-6.262;2023-05-03T07:44:16;102117.97;;;12.49;100.00
28167;BME280;15455;53.376;-6.262;2023-05-03T07:47:01;102112.78;;;12.56;100.00
28167;BME280;15455;53.376;-6.262;2023-05-03T07:49:47;102104.97;;;12.57;100.00
28167;BME280;15455;53.376;-6.262;2023-05-03T07:52:38;102101.41;;;12.52;100.00
28167;BME280;15455;53.376;-6.262;2023-05-03T07:55:24;102099.63;;;12.48;100.00
28167;BME280;15455;53.376;-6.262;2023-05-03T07:58:10;102102.25;;;12.48;100.00
28167;BME280;15455;53.376;-6.262;2023-05-03T08:00:56;102106.56;;;12.44;100.00
28167;BME280;15455;53.376;-6.262;2023-05-03T08:03:42;102105.72;;;12.47;100.00
28167;BME280;15455;53.376;-6.262;2023-05-03T08:06:28;102102.19;;;12.46;100.00
28167;BME280;15455;53.376;-6.262;2023-05-03T08:09:14;102110.97;;;12.48;100.00
28167;BME280;15455;53.376;-6.262;2023-05-03T08:12:00;102116.25;;;12.51;100.00
28167;BME280;15455;53.376;-6.262;2023-05-03T08:14:46;102115.41;;;12.54;100.00
28167;BME280;15455;53.376;-6.262;2023-05-03T08:17:39;102116.31;;;12.59;100.00
28167;BME280;15455;53.376;-6.262;2023-05-03T08:20:24;102109.38;;;12.63;100.00
28167;BME280;15455;53.376;-6.262;2023-05-03T08:23:13;102109.44;;;12.67;100.00
28167;BME280;15455;53.376;-6.262;2023-05-03T08:26:04;102113.00;;;12.74;100.00
28167;BME280;15455;53.376;-6.262;2023-05-03T08:28:51;102109.56;;;12.78;100.00
28167;BME280;15455;53.376;-6.262;2023-05-03T08:31:37;102116.56;;;12.82;100.00
28167;BME280;15455;53.376;-6.262;2023-05-03T08:34:22;102109.66;;;12.91;100.00
28167;BME280;15455;53.376;-6.262;2023-05-03T08:37:08;102111.50;;;12.99;100.00
28167;BME280;15455;53.376;-6.262;2023-05-03T08:39:53;102106.38;;;13.10;100.00
28167;BME280;15455;53.376;-6.262;2023-05-03T08:42:43;102104.69;;;13.20;100.00
28167;BME280;15455;53.376;-6.262;2023-05-03T08:45:31;102099.53;;;13.28;100.00
28167;BME280;15455;53.376;-6.262;2023-05-03T08:48:17;102108.34;;;13.36;100.00
28167;BME280;15455;53.376;-6.262;2023-05-03T08:51:03;102097.94;;;13.45;100.00
28167;BME280;15455;53.376;-6.262;2023-05-03T08:53:49;102104.13;;;13.53;100.00
28167;BME280;15455;53.376;-6.262;2023-05-03T08:56:40;102097.16;;;13.63;100.00
28167;BME280;15455;53.376;-6.262;2023-05-03T08:59:26;102093.72;;;13.72;100.00
28167;BME280;15455;53.376;-6.262;2023-05-03T09:02:14;102091.16;;;13.81;100.00
28167;BME280;15455;53.376;-6.262;2023-05-03T09:05:00;102092.97;;;13.90;100.00
28167;BME280;15455;53.376;-6.262;2023-05-03T09:08:07;102089.50;;;13.97;100.00
28167;BME280;15455;53.376;-6.262;2023-05-03T09:10:53;102087.72;;;13.93;100.00
28167;BME280;15455;53.376;-6.262;2023-05-03T09:13:38;102083.34;;;13.89;100.00
28167;BME280;15455;53.376;-6.262;2023-05-03T09:16:25;102084.19;;;13.86;100.00
28167;BME280;15455;53.376;-6.262;2023-05-03T09:19:13;102088.66;;;13.98;100.00
28167;BME280;15455;53.376;-6.262;2023-05-03T09:22:05;102089.53;;;14.06;100.00
28167;BME280;15455;53.376;-6.262;2023-05-03T09:24:56;102085.19;;;14.04;100.00
28167;BME280;15455;53.376;-6.262;2023-05-03T09:27:42;102068.53;;;14.05;100.00
28167;BME280;15455;53.376;-6.262;2023-05-03T09:30:28;102068.59;;;14.13;100.00
28167;BME280;15455;53.376;-6.262;2023-05-03T09:33:14;102059.81;;;14.14;100.00
28167;BME280;15455;53.376;-6.262;2023-05-03T09:36:07;102063.34;;;14.20;100.00
28167;BME280;15455;53.376;-6.262;2023-05-03T09:38:53;102062.50;;;14.28;100.00
28167;BME280;15455;53.376;-6.262;2023-05-03T09:41:40;102060.78;;;14.36;100.00
28167;BME280;15455;53.376;-6.262;2023-05-03T09:44:45;102053.78;;;14.47;100.00
28167;BME280;15455;53.376;-6.262;2023-05-03T09:47:48;102051.19;;;14.58;100.00
28167;BME280;15455;53.376;-6.262;2023-05-03T09:50:35;102048.59;;;14.63;100.00
28167;BME280;15455;53.376;-6.262;2023-05-03T09:53:21;102038.13;;;14.70;100.00
28167;BME280;15455;53.376;-6.262;2023-05-03T09:56:08;102038.13;;;14.81;100.00
28167;BME280;15455;53.376;-6.262;2023-05-03T09:58:57;102034.63;;;14.88;100.00
28167;BME280;15455;53.376;-6.262;2023-05-03T10:01:43;102037.25;;;14.91;100.00
28167;BME280;15455;53.376;-6.262;2023-05-03T10:04:37;102042.50;;;14.96;100.00
28167;BME280;15455;53.376;-6.262;2023-05-03T10:07:24;102049.50;;;14.99;100.00
28167;BME280;15455;53.376;-6.262;2023-05-03T10:10:13;102052.16;;;14.86;100.00
28167;BME280;15455;53.376;-6.262;2023-05-03T10:13:01;102053.03;;;14.79;100.00
28167;BME280;15455;53.376;-6.262;2023-05-03T10:16:10;102053.88;;;14.64;100.00
28167;BME280;15455;53.376;-6.262;2023-05-03T10:19:19;102068.78;;;14.79;100.00
28167;BME280;15455;53.376;-6.262;2023-05-03T10:22:07;102063.53;;;14.82;100.00
28167;BME280;15455;53.376;-6.262;2023-05-03T10:30:34;102066.16;;;15.15;100.00
28167;BME280;15455;53.376;-6.262;2023-05-03T10:33:30;102073.19;;;15.17;100.00
28167;BME280;15455;53.376;-6.262;2023-05-03T10:36:16;102072.31;;;15.06;100.00
28167;BME280;15455;53.376;-6.262;2023-05-03T10:39:02;102068.81;;;15.05;100.00
28167;BME280;15455;53.376;-6.262;2023-05-03T10:41:58;102060.91;;;15.05;100.00
28167;BME280;15455;53.376;-6.262;2023-05-03T10:44:53;102060.94;;;15.01;100.00
28167;BME280;15455;53.376;-6.262;2023-05-03T10:47:38;102058.28;;;15.04;100.00
28167;BME280;15455;53.376;-6.262;2023-05-03T10:50:25;102056.53;;;15.00;100.00
28167;BME280;15455;53.376;-6.262;2023-05-03T10:56:22;102053.91;;;14.97;100.00
28167;BME280;15455;53.376;-6.262;2023-05-03T10:59:08;102049.53;;;14.94;100.00
28167;BME280;15455;53.376;-6.262;2023-05-03T11:01:53;102053.91;;;14.98;100.00
28167;BME280;15455;53.376;-6.262;2023-05-03T11:04:41;102040.75;;;15.03;100.00
28167;BME280;15455;53.376;-6.262;2023-05-03T11:07:29;102045.13;;;14.99;100.00
28167;BME280;15455;53.376;-6.262;2023-05-03T11:10:17;102042.50;;;15.07;100.00
28167;BME280;15455;53.376;-6.262;2023-05-03T11:13:03;102047.78;;;15.05;100.00
28167;BME280;15455;53.376;-6.262;2023-05-03T11:15:49;102041.63;;;15.11;100.00
28167;BME280;15455;53.376;-6.262;2023-05-03T11:18:35;102031.13;;;15.14;100.00
28167;BME280;15455;53.376;-6.262;2023-05-03T11:21:21;102034.59;;;14.98;100.00
28167;BME280;15455;53.376;-6.262;2023-05-03T11:24:07;102039.00;;;14.91;100.00
28167;BME280;15455;53.376;-6.262;2023-05-03T11:26:53;102030.22;;;14.90;100.00
28167;BME280;15455;53.376;-6.262;2023-05-03T11:29:38;102027.59;;;14.92;100.00
28167;BME280;15455;53.376;-6.262;2023-05-03T11:32:27;102023.22;;;15.11;100.00
28167;BME280;15455;53.376;-6.262;2023-05-03T11:35:14;102024.09;;;15.18;100.00
28167;BME280;15455;53.376;-6.262;2023-05-03T11:37:59;102016.22;;;15.07;100.00
28167;BME280;15455;53.376;-6.262;2023-05-03T11:40:45;102022.34;;;14.89;100.00
28167;BME280;15455;53.376;-6.262;2023-05-03T11:43:30;102019.72;;;14.81;100.00
28167;BME280;15455;53.376;-6.262;2023-05-03T11:46:22;102011.84;;;14.86;100.00
28167;BME280;15455;53.376;-6.262;2023-05-03T11:49:09;102013.59;;;14.93;100.00
28167;BME280;15455;53.376;-6.262;2023-05-03T11:51:55;102017.97;;;15.11;100.00
28167;BME280;15455;53.376;-6.262;2023-05-03T11:54:41;102012.69;;;15.25;100.00
28167;BME280;15455;53.376;-6.262;2023-05-03T11:57:26;102010.91;;;15.38;100.00
28167;BME280;15455;53.376;-6.262;2023-05-03T12:00:14;102012.63;;;15.48;100.00
28167;BME280;15455;53.376;-6.262;2023-05-03T12:03:01;102006.44;;;15.68;100.00
28167;BME280;15455;53.376;-6.262;2023-05-03T12:05:47;102003.75;;;15.89;100.00
28167;BME280;15455;53.376;-6.262;2023-05-03T12:08:33;102001.97;;;15.97;100.00
28167;BME280;15455;53.376;-6.262;2023-05-03T12:11:23;101998.47;;;15.95;100.00
28167;BME280;15455;53.376;-6.262;2023-05-03T12:14:12;101994.97;;;15.95;100.00
28167;BME280;15455;53.376;-6.262;2023-05-03T12:16:57;101990.50;;;16.03;100.00
28167;BME280;15455;53.376;-6.262;2023-05-03T12:19:44;101991.34;;;16.13;100.00
28167;BME280;15455;53.376;-6.262;2023-05-03T12:22:33;101989.53;;;16.24;100.00
28167;BME280;15455;53.376;-6.262;2023-05-03T12:25:20;101986.94;;;16.20;100.00
28167;BME280;15455;53.376;-6.262;2023-05-03T12:28:10;101989.59;;;16.15;100.00
28167;BME280;15455;53.376;-6.262;2023-05-03T12:31:05;101986.09;;;16.11;100.00
28167;BME280;15455;53.376;-6.262;2023-05-03T12:33:51;101984.31;;;16.10;100.00
28167;BME280;15455;53.376;-6.262;2023-05-03T12:36:40;101979.97;;;16.09;100.00
28167;BME280;15455;53.376;-6.262;2023-05-03T12:39:27;101984.34;;;16.09;100.00
28167;BME280;15455;53.376;-6.262;2023-05-03T12:42:17;101976.44;;;16.12;100.00
28167;BME280;15455;53.376;-6.262;2023-05-03T12:45:07;101974.72;;;16.00;100.00
28167;BME280;15455;53.376;-6.262;2023-05-03T12:47:56;101981.78;;;15.95;100.00
28167;BME280;15455;53.376;-6.262;2023-05-03T12:50:41;101968.66;;;15.86;100.00
28167;BME280;15455;53.376;-6.262;2023-05-03T12:53:30;101969.59;;;15.69;100.00
28167;BME280;15455;53.376;-6.262;2023-05-03T12:56:16;101970.47;;;15.67;100.00
28167;BME280;15455;53.376;-6.262;2023-05-03T12:59:01;101966.13;;;15.59;100.00
28167;BME280;15455;53.376;-6.262;2023-05-03T13:02:09;101956.53;;;15.46;100.00
28167;BME280;15455;53.376;-6.262;2023-05-03T13:04:58;101971.47;;;15.18;100.00
28167;BME280;15455;53.376;-6.262;2023-05-03T13:07:45;101958.38;;;15.10;100.00
28167;BME280;15455;53.376;-6.262;2023-05-03T13:10:41;101948.69;;;15.23;100.00
28167;BME280;15455;53.376;-6.262;2023-05-03T13:13:27;101945.03;;;15.62;100.00
28167;BME280;15455;53.376;-6.262;2023-05-03T13:16:13;101946.53;;;16.21;100.00
28167;BME280;15455;53.376;-6.262;2023-05-03T13:18:58;101941.66;;;16.81;100.00
28167;BME280;15455;53.376;-6.262;2023-05-03T13:21:46;101936.00;;;17.23;100.00
28167;BME280;15455;53.376;-6.262;2023-05-03T13:24:32;101938.25;;;17.56;100.00
28167;BME280;15455;53.376;-6.262;2023-05-03T13:27:18;101936.19;;;17.78;100.00
28167;BME280;15455;53.376;-6.262;2023-05-03T13:30:03;101936.94;;;17.91;100.00
28167;BME280;15455;53.376;-6.262;2023-05-03T13:32:49;101938.19;;;18.27;100.00
28167;BME280;15455;53.376;-6.262;2023-05-03T13:35:35;101939.44;;;18.56;100.00
28167;BME280;15455;53.376;-6.262;2023-05-03T13:38:21;101943.44;;;18.80;100.00
28167;BME280;15455;53.376;-6.262;2023-05-03T13:41:06;101937.31;;;18.80;100.00
28167;BME280;15455;53.376;-6.262;2023-05-03T13:43:52;101936.75;;;18.61;100.00
28167;BME280;15455;53.376;-6.262;2023-05-03T13:46:38;101934.63;;;18.28;100.00
28167;BME280;15455;53.376;-6.262;2023-05-03T13:49:25;101932.56;;;17.86;100.00
28167;BME280;15455;53.376;-6.262;2023-05-03T13:52:11;101935.81;;;17.39;100.00
28167;BME280;15455;53.376;-6.262;2023-05-03T13:54:56;101932.63;;;17.10;100.00
28167;BME280;15455;53.376;-6.262;2023-05-03T13:57:42;101928.44;;;16.84;100.00
28167;BME280;15455;53.376;-6.262;2023-05-03T14:00:28;101927.59;;;16.79;100.00
28167;BME280;15455;53.376;-6.262;2023-05-03T14:03:16;101930.28;;;16.75;100.00
28167;BME280;15455;53.376;-6.262;2023-05-03T14:06:02;101939.06;;;16.78;100.00
28167;BME280;15455;53.376;-6.262;2023-05-03T14:08:48;101926.72;;;16.80;100.00
28167;BME280;15455;53.376;-6.262;2023-05-03T14:11:34;101932.59;;;17.12;100.00
28167;BME280;15455;53.376;-6.262;2023-05-03T14:14:19;101924.19;;;17.52;100.00
28167;BME280;15455;53.376;-6.262;2023-05-03T14:17:05;101913.16;;;17.89;100.00
28167;BME280;15455;53.376;-6.262;2023-05-03T14:19:51;101911.59;;;18.36;100.00
28167;BME280;15455;53.376;-6.262;2023-05-03T14:22:36;101915.16;;;18.85;100.00
28167;BME280;15455;53.376;-6.262;2023-05-03T14:25:22;101910.28;;;19.11;100.00
28167;BME280;15455;53.376;-6.262;2023-05-03T14:28:08;101913.75;;;19.16;100.00